createdAt,value
2018-01-16T00:00:33.021Z,8.25
2018-01-16T00:03:00.558Z,6.60
2018-01-16T00:05:28.042Z,3.60
2018-01-16T00:07:55.541Z,2.30
2018-01-16T00:10:24.388Z,1.95
2018-01-16T00:12:51.924Z,2.15
2018-01-16T00:15:19.417Z,1.50
2018-01-16T00:17:46.918Z,1.65
2018-01-16T00:20:14.808Z,1.48
2018-01-16T00:22:42.708Z,1.60
2018-01-16T00:25:10.271Z,1.50
2018-01-16T00:27:37.758Z,1.40
2018-01-16T00:30:05.229Z,1.30
2018-01-16T00:32:32.733Z,1.10
2018-01-16T00:35:00.696Z,1.10
2018-01-16T00:37:28.200Z,1.05
2018-01-16T00:39:55.777Z,1.05
2018-01-16T00:42:23.271Z,0.98
2018-01-16T00:44:51.239Z,0.80
2018-01-16T00:47:18.724Z,1.20
2018-01-16T00:49:46.200Z,1.00
2018-01-16T00:52:13.690Z,0.68
2018-01-16T00:54:41.186Z,0.70
2018-01-16T00:57:08.680Z,1.10
2018-01-16T00:59:36.542Z,0.90
2018-01-16T01:02:04.051Z,0.70
2018-01-16T01:04:31.920Z,1.10
2018-01-16T01:06:59.420Z,1.30
2018-01-16T01:09:26.995Z,0.90
2018-01-16T01:11:54.692Z,1.20
2018-01-16T01:14:22.172Z,1.25
2018-01-16T01:16:49.648Z,1.10
2018-01-16T01:19:17.228Z,1.20
2018-01-16T01:21:44.704Z,1.40
2018-01-16T01:24:12.205Z,1.52
2018-01-16T01:26:39.688Z,1.92
2018-01-16T01:29:07.178Z,2.50
2018-01-16T01:31:35.061Z,2.65
2018-01-16T01:34:02.567Z,4.45
2018-01-16T01:36:30.449Z,4.20
2018-01-16T01:38:58.339Z,4.53
2018-01-16T01:41:25.816Z,5.30
2018-01-16T01:43:54.158Z,5.57
2018-01-16T01:46:21.693Z,6.12
2018-01-16T01:48:49.192Z,5.07
2018-01-16T01:51:17.062Z,4.60
2018-01-16T01:53:44.559Z,4.97
2018-01-16T01:56:12.142Z,5.03
2018-01-16T01:58:39.728Z,7.12
2018-01-16T02:01:07.313Z,6.20
2018-01-16T02:03:34.897Z,5.45
2018-01-16T02:06:02.381Z,5.65
2018-01-16T02:08:29.955Z,5.80
2018-01-16T02:10:57.443Z,4.95
2018-01-16T02:13:24.944Z,5.78
2018-01-16T02:15:52.917Z,5.80
2018-01-16T02:18:20.406Z,5.30
2018-01-16T02:20:47.874Z,5.15
2018-01-16T02:23:15.472Z,4.80
2018-01-16T02:25:43.054Z,4.53
2018-01-16T02:28:10.552Z,5.00
2018-01-16T02:30:38.133Z,4.97
2018-01-16T02:33:05.626Z,4.90
2018-01-16T02:35:33.594Z,4.22
2018-01-16T02:38:01.096Z,4.65
2018-01-16T02:40:28.680Z,4.80
2018-01-16T02:42:56.169Z,4.40
2018-01-16T02:45:24.056Z,4.32
2018-01-16T02:47:51.527Z,5.45
2018-01-16T02:50:19.042Z,5.45
2018-01-16T02:52:46.528Z,9.05
2018-01-16T02:55:14.032Z,10.88
2018-01-16T02:57:41.510Z,8.45
2018-01-16T03:00:09.007Z,6.68
2018-01-16T03:02:36.528Z,6.07
2018-01-16T03:05:04.121Z,5.40
2018-01-16T03:07:31.697Z,5.28
2018-01-16T03:09:59.195Z,5.85
2018-01-16T03:12:27.082Z,6.30
2018-01-16T03:14:54.666Z,4.90
2018-01-16T03:17:22.141Z,4.90
2018-01-16T03:19:49.720Z,6.25
2018-01-16T03:22:17.194Z,5.97
2018-01-16T03:24:44.703Z,6.00
2018-01-16T03:27:12.262Z,7.55
2018-01-16T03:29:39.764Z,7.57
2018-01-16T03:32:07.339Z,7.47
2018-01-16T03:34:34.926Z,7.72
2018-01-16T03:37:02.404Z,7.18
2018-01-16T03:39:29.904Z,7.68
2018-01-16T03:41:57.472Z,6.53
2018-01-16T03:44:24.981Z,4.68
2018-01-16T03:46:52.865Z,3.35
2018-01-16T03:49:20.845Z,3.42
2018-01-16T03:51:48.324Z,3.05
2018-01-16T03:54:15.829Z,2.75
2018-01-16T03:56:43.709Z,2.87
2018-01-16T03:59:11.208Z,3.55
2018-01-16T04:01:39.074Z,3.12
2018-01-16T04:04:06.569Z,3.05
2018-01-16T04:06:34.149Z,2.92
2018-01-16T04:09:01.627Z,3.67
2018-01-16T04:11:29.116Z,3.40
2018-01-16T04:13:56.597Z,3.85
2018-01-16T04:16:24.087Z,2.78
2018-01-16T04:18:51.964Z,2.15
2018-01-16T04:21:19.462Z,3.05
2018-01-16T04:23:47.340Z,2.78
2018-01-16T04:26:14.831Z,2.45
2018-01-16T04:28:42.329Z,1.83
2018-01-16T04:31:10.224Z,1.73
2018-01-16T04:33:38.094Z,2.00
2018-01-16T04:36:05.704Z,2.45
2018-01-16T04:38:33.584Z,2.03
2018-01-16T04:41:01.071Z,2.25
2018-01-16T04:43:28.635Z,2.83
2018-01-16T04:45:56.127Z,1.62
2018-01-16T04:48:23.598Z,1.23
2018-01-16T04:50:51.178Z,1.37
2018-01-16T04:53:18.673Z,1.70
2018-01-16T04:55:46.166Z,1.15
2018-01-16T04:58:13.638Z,0.90
2018-01-16T05:00:41.214Z,1.25
2018-01-16T05:03:08.704Z,0.93
2018-01-16T05:05:36.295Z,1.02
2018-01-16T05:08:03.771Z,0.82
2018-01-16T05:10:31.361Z,1.55
2018-01-16T05:12:58.840Z,0.45
2018-01-16T05:15:26.428Z,0.85
2018-01-16T05:17:53.913Z,0.60
2018-01-16T05:20:21.413Z,0.80
2018-01-16T05:22:49.297Z,1.30
2018-01-16T05:25:17.179Z,0.82
2018-01-16T05:27:44.647Z,0.68
2018-01-16T05:30:12.155Z,1.10
2018-01-16T05:32:40.027Z,0.60
2018-01-16T05:35:07.506Z,1.52
2018-01-16T05:37:35.006Z,1.77
2018-01-16T05:40:02.567Z,1.62
2018-01-16T05:42:30.064Z,1.83
2018-01-16T05:44:57.540Z,2.40
2018-01-16T05:47:25.036Z,2.22
2018-01-16T05:49:52.524Z,2.60
2018-01-16T05:52:20.019Z,1.40
2018-01-16T05:54:47.982Z,2.67
2018-01-16T05:57:15.469Z,2.40
2018-01-16T05:59:42.934Z,2.42
2018-01-16T06:02:10.540Z,1.70
2018-01-16T06:04:38.020Z,2.25
2018-01-16T06:07:05.512Z,2.70
2018-01-16T06:09:33.083Z,2.45
2018-01-16T06:12:00.670Z,3.70
2018-01-16T06:14:28.153Z,4.45
2018-01-16T06:16:55.652Z,3.75
2018-01-16T06:19:23.122Z,3.78
2018-01-16T06:21:50.703Z,4.20
2018-01-16T06:24:18.589Z,3.22
2018-01-16T06:26:46.085Z,2.75
2018-01-16T06:29:13.646Z,3.78
2018-01-16T06:31:41.257Z,3.50
2018-01-16T06:34:08.737Z,3.20
2018-01-16T06:36:36.310Z,3.25
2018-01-16T06:39:03.792Z,3.30
2018-01-16T06:41:31.295Z,4.18
2018-01-16T06:43:58.864Z,3.17
2018-01-16T06:46:26.372Z,4.05
2018-01-16T06:48:54.248Z,4.20
2018-01-16T06:51:21.754Z,3.97
2018-01-16T06:53:49.722Z,3.53
2018-01-16T06:56:17.220Z,5.00
2018-01-16T06:58:44.690Z,3.85
2018-01-16T07:01:12.185Z,4.30
2018-01-16T07:03:39.754Z,3.60
2018-01-16T07:06:07.227Z,3.40
2018-01-16T07:08:34.820Z,2.50
2018-01-16T07:11:02.296Z,3.10
2018-01-16T07:13:29.791Z,2.55
2018-01-16T07:15:57.267Z,2.55
2018-01-16T07:18:24.764Z,2.85
2018-01-16T07:20:52.238Z,3.55
2018-01-16T07:23:19.832Z,2.50
2018-01-16T07:25:47.312Z,2.72
2018-01-16T07:28:14.886Z,2.50
2018-01-16T07:30:42.349Z,3.12
2018-01-16T07:33:09.847Z,2.55
2018-01-16T07:35:37.339Z,2.92
2018-01-16T07:38:04.837Z,3.72
2018-01-16T07:40:32.312Z,2.80
2018-01-16T07:42:59.895Z,3.15
2018-01-16T07:45:27.489Z,3.65
2018-01-16T07:47:54.993Z,3.55
2018-01-16T07:50:22.952Z,3.55
2018-01-16T07:52:50.447Z,3.53
2018-01-16T07:55:18.015Z,3.67
2018-01-16T07:57:45.513Z,3.45
2018-01-16T08:00:13.082Z,3.45
2018-01-16T08:02:40.570Z,3.50
2018-01-16T08:05:08.061Z,3.58
2018-01-16T08:07:35.561Z,4.15
2018-01-16T08:10:03.527Z,4.55
2018-01-16T08:12:31.023Z,4.62
2018-01-16T08:14:58.603Z,4.30
2018-01-16T08:17:26.091Z,4.70
2018-01-16T08:19:53.612Z,4.60
2018-01-16T08:22:21.109Z,4.15
2018-01-16T08:24:48.636Z,3.25
2018-01-16T08:27:16.127Z,3.95
2018-01-16T08:29:43.611Z,3.15
2018-01-16T08:32:11.188Z,3.75
2018-01-16T08:34:38.780Z,3.78
2018-01-16T08:37:06.247Z,3.00
2018-01-16T08:39:33.746Z,3.37
2018-01-16T08:42:01.210Z,2.85
2018-01-16T08:44:28.803Z,2.83
2018-01-16T08:46:56.280Z,2.90
2018-01-16T08:49:23.772Z,2.40
2018-01-16T08:51:51.346Z,2.55
2018-01-16T08:54:18.840Z,2.00
2018-01-16T08:56:46.320Z,2.35
2018-01-16T08:59:13.912Z,1.58
2018-01-16T09:01:41.383Z,1.48
2018-01-16T09:04:08.883Z,1.20
2018-01-16T09:06:36.358Z,1.52
2018-01-16T09:09:03.849Z,1.75
2018-01-16T09:11:31.420Z,1.75
2018-01-16T09:13:58.919Z,1.65
2018-01-16T09:16:26.386Z,2.15
2018-01-16T09:18:53.897Z,1.95
2018-01-16T09:21:21.864Z,1.87
2018-01-16T09:23:49.346Z,1.75
2018-01-16T09:26:16.915Z,2.40
2018-01-16T09:28:44.428Z,2.12
2018-01-16T09:31:12.294Z,2.15
2018-01-16T09:33:39.786Z,1.90
2018-01-16T09:36:07.268Z,2.33
2018-01-16T09:38:34.851Z,2.53
2018-01-16T09:41:02.431Z,2.28
2018-01-16T09:43:30.029Z,2.03
2018-01-16T09:45:57.536Z,2.17
2018-01-16T09:48:25.506Z,2.12
2018-01-16T09:50:53.094Z,2.03
2018-01-16T09:53:20.599Z,1.95
2018-01-16T09:55:48.480Z,2.62
2018-01-16T09:58:16.361Z,2.10
2018-01-16T10:00:44.469Z,2.22
2018-01-16T10:03:12.366Z,2.60
2018-01-16T10:05:40.345Z,2.15
2018-01-16T10:08:07.825Z,2.25
2018-01-16T10:10:35.290Z,2.22
2018-01-16T10:13:02.783Z,3.37
2018-01-16T10:15:30.273Z,1.55
2018-01-16T10:17:57.758Z,2.42
2018-01-16T10:20:25.262Z,3.28
2018-01-16T10:22:53.136Z,2.30
2018-01-16T10:25:20.627Z,1.90
2018-01-16T10:27:48.490Z,2.45
2018-01-16T10:30:16.084Z,2.62
2018-01-16T10:32:43.550Z,1.80
2018-01-16T10:35:11.055Z,2.80
2018-01-16T10:37:38.625Z,2.00
2018-01-16T10:40:06.094Z,1.35
2018-01-16T10:42:33.590Z,0.88
2018-01-16T10:45:01.062Z,1.00
2018-01-16T10:47:28.560Z,0.62
2018-01-16T10:49:56.045Z,0.60
2018-01-16T10:52:23.588Z,0.40
2018-01-16T10:54:51.071Z,0.60
2018-01-16T10:57:18.563Z,0.65
2018-01-16T10:59:46.027Z,0.43
2018-01-16T11:02:13.511Z,0.50
2018-01-16T11:04:41.049Z,0.70
2018-01-16T11:07:08.534Z,0.75
2018-01-16T11:09:36.122Z,1.70
2018-01-16T11:12:03.614Z,1.17
2018-01-16T11:14:31.109Z,1.48
2018-01-16T11:16:59.001Z,1.30
2018-01-16T11:19:26.867Z,1.05
2018-01-16T11:21:54.367Z,1.37
2018-01-16T11:24:22.226Z,1.40
2018-01-16T11:26:49.724Z,1.40
2018-01-16T11:29:17.200Z,1.20
2018-01-16T11:31:44.704Z,1.62
2018-01-16T11:34:12.579Z,1.10
2018-01-16T11:36:40.072Z,1.80
2018-01-16T11:39:07.550Z,1.35
2018-01-16T11:41:35.054Z,1.75
2018-01-16T11:44:02.929Z,1.27
2018-01-16T11:46:30.509Z,2.12
2018-01-16T11:48:58.015Z,2.62
2018-01-16T11:51:25.890Z,2.70
2018-01-16T11:53:53.368Z,1.83
2018-01-16T11:56:20.952Z,1.87
2018-01-16T11:58:48.433Z,1.87
2018-01-16T12:01:15.902Z,3.00
2018-01-16T12:03:43.388Z,2.37
2018-01-16T12:06:10.863Z,2.60
2018-01-16T12:08:38.363Z,2.28
2018-01-16T12:11:05.949Z,2.55
2018-01-16T12:13:33.536Z,3.12
2018-01-16T12:16:01.003Z,2.30
2018-01-16T12:18:28.594Z,2.25
2018-01-16T12:20:56.077Z,2.30
2018-01-16T12:23:23.573Z,2.60
2018-01-16T12:25:51.168Z,1.67
2018-01-16T12:28:19.064Z,2.00
2018-01-16T12:30:46.930Z,1.50
2018-01-16T12:33:14.507Z,1.87
2018-01-16T12:35:41.984Z,1.80
2018-01-16T12:38:09.603Z,1.95
2018-01-16T12:40:37.472Z,2.87
2018-01-16T12:43:04.960Z,2.40
2018-01-16T12:45:32.439Z,2.35
2018-01-16T12:47:59.972Z,2.10
2018-01-16T12:50:27.438Z,3.00
2018-01-16T12:52:55.058Z,1.50
2018-01-16T12:55:22.563Z,2.33
2018-01-16T12:57:50.084Z,3.00
2018-01-16T13:00:17.640Z,2.47
2018-01-16T13:02:45.231Z,2.22
2018-01-16T13:05:12.702Z,2.22
2018-01-16T13:07:40.242Z,1.70
2018-01-16T13:10:07.721Z,1.05
2018-01-16T13:12:35.202Z,0.90
2018-01-16T13:15:02.688Z,1.48
2018-01-16T13:17:30.175Z,1.37
2018-01-16T13:19:57.659Z,1.30
2018-01-16T13:22:25.272Z,0.90
2018-01-16T13:24:52.768Z,1.00
2018-01-16T13:27:20.265Z,1.30
2018-01-16T13:29:48.152Z,1.10
2018-01-16T13:32:15.632Z,1.37
2018-01-16T13:34:43.129Z,0.90
2018-01-16T13:37:11.096Z,1.17
2018-01-16T13:39:38.594Z,1.10
2018-01-16T13:42:06.076Z,1.73
2018-01-16T13:44:33.563Z,1.67
2018-01-16T13:47:01.088Z,1.60
2018-01-16T13:49:28.952Z,1.58
2018-01-16T13:51:56.825Z,2.15
2018-01-16T13:54:24.324Z,2.67
2018-01-16T13:56:52.203Z,2.35
2018-01-16T13:59:19.707Z,2.70
2018-01-16T14:01:47.591Z,1.23
2018-01-16T14:04:15.531Z,2.35
2018-01-16T14:06:43.369Z,2.22
2018-01-16T14:09:11.263Z,1.98
2018-01-16T14:11:39.137Z,1.80
2018-01-16T14:14:06.626Z,1.67
2018-01-16T14:16:34.090Z,1.90
2018-01-16T14:19:01.588Z,1.75
2018-01-16T14:21:29.057Z,1.85
2018-01-16T14:23:56.547Z,2.50
2018-01-16T14:26:24.027Z,17.10
2018-01-16T14:28:51.531Z,67.50
2018-01-16T14:31:19.417Z,39.97
2018-01-16T14:33:46.917Z,20.77
2018-01-16T14:36:14.909Z,8.20
2018-01-16T14:38:42.870Z,4.20
2018-01-16T14:41:10.357Z,3.40
2018-01-16T14:43:37.856Z,2.75
2018-01-16T14:46:05.344Z,4.05
2018-01-16T14:48:33.207Z,1.95
2018-01-16T14:51:00.704Z,2.30
2018-01-16T14:53:28.283Z,2.10
2018-01-16T14:55:55.770Z,1.50
2018-01-16T14:58:23.254Z,2.15
2018-01-16T15:00:50.738Z,1.60
2018-01-16T15:03:18.346Z,2.05
2018-01-16T15:05:45.866Z,1.45
2018-01-16T15:08:13.339Z,2.37
2018-01-16T15:10:40.963Z,2.20
2018-01-16T15:13:08.440Z,1.75
2018-01-16T15:15:36.033Z,1.52
2018-01-16T15:18:03.545Z,1.45
2018-01-16T15:20:31.096Z,2.47
2018-01-16T15:22:58.582Z,1.67
2018-01-16T15:25:26.067Z,1.75
2018-01-16T15:27:53.549Z,3.08
2018-01-16T15:30:21.049Z,2.03
2018-01-16T15:32:48.624Z,3.30
2018-01-16T15:35:16.199Z,2.25
2018-01-16T15:37:43.687Z,2.90
2018-01-16T15:40:11.188Z,7.00
2018-01-16T15:42:39.064Z,5.32
2018-01-16T15:45:06.548Z,3.15
2018-01-16T15:47:34.126Z,3.00
2018-01-16T15:50:01.620Z,3.10
2018-01-16T15:52:29.099Z,2.85
2018-01-16T15:54:56.602Z,2.10
2018-01-16T15:57:24.513Z,1.90
2018-01-16T15:59:52.013Z,2.25
2018-01-16T16:02:19.496Z,2.60
2018-01-16T16:04:47.108Z,3.75
2018-01-16T16:07:14.574Z,3.30
2018-01-16T16:09:42.097Z,2.30
2018-01-16T16:12:09.572Z,3.03
2018-01-16T16:14:37.119Z,4.57
2018-01-16T16:17:04.607Z,6.97
2018-01-16T16:19:32.232Z,5.20
2018-01-16T16:21:59.742Z,6.72
2018-01-16T16:24:27.278Z,7.53
2018-01-16T16:26:54.767Z,6.40
2018-01-16T16:29:22.485Z,6.10
2018-01-16T16:31:50.039Z,7.93
2018-01-16T16:34:17.556Z,7.20
2018-01-16T16:36:45.098Z,9.02
2018-01-16T16:39:12.576Z,9.23
2018-01-16T16:41:40.181Z,7.70
2018-01-16T16:44:07.762Z,8.15
2018-01-16T16:46:35.288Z,8.95
2018-01-16T16:49:02.773Z,8.77
2018-01-16T16:51:30.284Z,8.40
2018-01-16T16:53:57.768Z,10.00
2018-01-16T16:56:25.379Z,10.90
2018-01-16T16:58:52.868Z,10.35
2018-01-16T17:01:21.432Z,10.80
2018-01-16T17:03:49.086Z,10.13
2018-01-16T17:06:16.988Z,10.35
2018-01-16T17:08:44.459Z,9.48
2018-01-16T17:11:12.370Z,15.13
2018-01-16T17:13:39.872Z,21.85
2018-01-16T17:16:07.404Z,13.52
2018-01-16T17:18:34.906Z,8.48
2018-01-16T17:21:02.816Z,8.77
2018-01-16T17:23:30.296Z,7.85
2018-01-16T17:25:57.842Z,8.43
2018-01-16T17:28:25.327Z,8.98
2018-01-16T17:30:52.817Z,9.43
2018-01-16T17:33:20.307Z,12.68
2018-01-16T17:35:48.283Z,13.07
2018-01-16T17:38:15.770Z,9.70
2018-01-16T17:40:43.652Z,9.18
2018-01-16T17:43:11.156Z,7.78
2018-01-16T17:45:39.116Z,8.52
2018-01-16T17:48:06.662Z,7.97
2018-01-16T17:50:34.105Z,8.30
2018-01-16T17:53:01.616Z,8.63
2018-01-16T17:55:29.097Z,8.07
2018-01-16T17:57:56.676Z,7.30
2018-01-16T18:00:24.556Z,6.95
2018-01-16T18:02:52.072Z,6.60
2018-01-16T18:05:19.599Z,7.00
2018-01-16T18:07:47.092Z,8.50
2018-01-16T18:10:14.572Z,7.07
2018-01-16T18:12:42.187Z,7.25
2018-01-16T18:15:10.072Z,5.05
2018-01-16T18:17:38.003Z,3.85
2018-01-16T18:20:05.472Z,3.58
2018-01-16T18:22:33.108Z,3.87
2018-01-16T18:25:00.592Z,7.55
2018-01-16T18:27:28.083Z,6.15
2018-01-16T18:29:55.555Z,6.00
2018-01-16T18:32:23.093Z,5.28
2018-01-16T18:34:51.044Z,4.80
2018-01-16T18:37:18.651Z,4.37
2018-01-16T18:39:46.532Z,4.82
2018-01-16T18:42:14.520Z,3.65
2018-01-16T18:44:41.995Z,3.40
2018-01-16T18:47:09.511Z,2.65
2018-01-16T18:49:36.998Z,3.50
2018-01-16T18:52:04.488Z,3.15
2018-01-16T18:54:32.009Z,4.75
2018-01-16T18:56:59.508Z,4.35
2018-01-16T18:59:27.101Z,4.45
2018-01-16T19:01:54.590Z,4.15
2018-01-16T19:04:22.485Z,3.55
2018-01-16T19:06:50.359Z,4.47
2018-01-16T19:09:17.856Z,4.10
2018-01-16T19:11:45.326Z,5.40
2018-01-16T19:14:12.810Z,5.28
2018-01-16T19:16:40.394Z,4.20
2018-01-16T19:19:07.878Z,4.47
2018-01-16T19:21:35.373Z,5.35
2018-01-16T19:24:03.266Z,6.30
2018-01-16T19:26:31.235Z,6.20
2018-01-16T19:28:58.731Z,6.55
2018-01-16T19:31:26.212Z,7.20
2018-01-16T19:33:53.698Z,7.18
2018-01-16T19:36:21.179Z,8.57
2018-01-16T19:38:48.758Z,8.68
2018-01-16T19:41:16.272Z,12.48
2018-01-16T19:43:44.248Z,11.63
2018-01-16T19:46:11.830Z,10.40
2018-01-16T19:48:39.360Z,10.35
2018-01-16T19:51:06.928Z,10.50
2018-01-16T19:53:34.466Z,9.02
2018-01-16T19:56:01.948Z,9.18
2018-01-16T19:58:29.540Z,8.70
2018-01-16T20:00:57.154Z,8.00
2018-01-16T20:03:25.034Z,8.07
2018-01-16T20:05:52.902Z,8.77
2018-01-16T20:08:20.394Z,10.20
2018-01-16T20:10:47.871Z,8.55
2018-01-16T20:13:15.372Z,9.63
2018-01-16T20:15:43.382Z,8.00
2018-01-16T20:18:11.270Z,9.35
2018-01-16T20:20:39.162Z,8.40
2018-01-16T20:23:07.049Z,9.25
2018-01-16T20:25:35.015Z,9.45
2018-01-16T20:28:02.496Z,7.40
2018-01-16T20:30:29.986Z,8.68
2018-01-16T20:32:57.455Z,9.65
2018-01-16T20:35:24.958Z,10.30
2018-01-16T20:37:52.534Z,17.23
2018-01-16T20:40:20.142Z,23.62
2018-01-16T20:42:48.037Z,11.65
2018-01-16T20:45:16.012Z,23.98
2018-01-16T20:47:43.489Z,9.07
2018-01-16T20:50:10.981Z,9.02
2018-01-16T20:52:38.455Z,7.12
2018-01-16T20:55:05.962Z,8.07
2018-01-16T20:57:33.840Z,7.18
2018-01-16T21:00:01.415Z,6.70
2018-01-16T21:02:29.008Z,6.80
2018-01-16T21:04:56.595Z,7.50
2018-01-16T21:07:24.081Z,7.25
2018-01-16T21:09:51.650Z,7.95
2018-01-16T21:12:19.265Z,7.05
2018-01-16T21:14:47.152Z,8.93
2018-01-16T21:17:15.054Z,9.68
2018-01-16T21:19:42.944Z,11.35
2018-01-16T21:22:10.833Z,10.63
2018-01-16T21:24:38.747Z,10.30
2018-01-16T21:27:06.222Z,10.38
2018-01-16T21:29:33.716Z,11.07
2018-01-16T21:32:01.269Z,8.90
2018-01-16T21:34:28.747Z,9.00
2018-01-16T21:36:56.234Z,8.50
2018-01-16T21:39:24.112Z,7.60
2018-01-16T21:41:51.602Z,7.32
2018-01-16T21:44:19.092Z,7.78
2018-01-16T21:46:46.978Z,7.72
2018-01-16T21:49:14.567Z,7.07
2018-01-16T21:51:42.543Z,6.70
2018-01-16T21:54:10.136Z,7.05
2018-01-16T21:56:37.630Z,6.80
2018-01-16T21:59:05.503Z,6.45
2018-01-16T22:01:32.986Z,6.15
2018-01-16T22:04:00.584Z,5.45
2018-01-16T22:06:28.085Z,5.20
2018-01-16T22:08:55.960Z,5.72
2018-01-16T22:11:23.460Z,5.32
2018-01-16T22:13:50.948Z,5.68
2018-01-16T22:16:19.085Z,5.25
2018-01-16T22:18:46.578Z,5.50
2018-01-16T22:21:14.066Z,4.80
2018-01-16T22:23:41.577Z,5.20
2018-01-16T22:26:09.451Z,4.68
2018-01-16T22:28:36.934Z,4.15
2018-01-16T22:31:04.426Z,4.68
2018-01-16T22:33:31.916Z,4.25
2018-01-16T22:35:59.477Z,4.18
2018-01-16T22:38:26.976Z,4.43
2018-01-16T22:40:54.546Z,3.90
2018-01-16T22:43:22.052Z,5.03
2018-01-16T22:45:49.936Z,4.10
2018-01-16T22:48:17.510Z,4.70
2018-01-16T22:50:45.749Z,4.00
2018-01-16T22:53:13.248Z,5.12
2018-01-16T22:55:40.718Z,4.32
2018-01-16T22:58:08.208Z,3.92
2018-01-16T23:00:35.760Z,4.78
2018-01-16T23:03:03.239Z,5.97
2018-01-16T23:05:30.731Z,5.00
2018-01-16T23:07:58.590Z,3.90
2018-01-16T23:10:26.192Z,4.28
2018-01-16T23:12:53.658Z,3.90
2018-01-16T23:15:21.146Z,3.97
2018-01-16T23:17:48.618Z,4.05
2018-01-16T23:20:16.116Z,3.92
2018-01-16T23:22:43.698Z,3.53
2018-01-16T23:25:11.288Z,3.53
2018-01-16T23:27:38.867Z,3.45
2018-01-16T23:30:06.354Z,4.10
2018-01-16T23:32:33.848Z,3.83
2018-01-16T23:35:01.338Z,3.50
2018-01-16T23:37:28.935Z,3.50
2018-01-16T23:39:56.913Z,3.62
2018-01-16T23:42:24.403Z,3.17
2018-01-16T23:44:52.374Z,3.25
2018-01-16T23:47:19.856Z,2.80
2018-01-16T23:49:47.350Z,2.75
2018-01-16T23:52:14.847Z,2.72
2018-01-16T23:54:42.820Z,3.92
2018-01-16T23:57:10.300Z,3.20
2018-01-16T23:59:37.888Z,3.72
